sensor_id;sensor_type;location;lat;lon;timestamp;P1;durP1;ratioP1;P2;durP2;ratioP2
44646;SDS011;56315;-33.902;151.160;2023-06-01T00:00:15;7.75;;;3.63;;
44646;SDS011;56315;-33.902;151.160;2023-06-01T00:02:43;9.20;;;2.55;;
44646;SDS011;56315;-33.902;151.160;2023-06-01T00:05:10;9.48;;;2.80;;
44646;SDS011;56315;-33.902;151.160;2023-06-01T00:07:37;3.70;;;2.05;;
44646;SDS011;56315;-33.902;151.160;2023-06-01T00:10:05;5.53;;;2.25;;
44646;SDS011;56315;-33.902;151.160;2023-06-01T00:12:32;4.43;;;1.80;;
44646;SDS011;56315;-33.902;151.160;2023-06-01T00:14:59;8.65;;;1.70;;
44646;SDS011;56315;-33.902;151.160;2023-06-01T00:17:27;14.95;;;13.45;;
44646;SDS011;56315;-33.902;151.160;2023-06-01T00:19:54;25.75;;;23.05;;
44646;SDS011;56315;-33.902;151.160;2023-06-01T00:22:21;5.22;;;2.58;;
44646;SDS011;56315;-33.902;151.160;2023-06-01T00:24:54;3.13;;;1.73;;
44646;SDS011;56315;-33.902;151.160;2023-06-01T00:27:21;4.72;;;1.90;;
44646;SDS011;56315;-33.902;151.160;2023-06-01T00:29:49;3.33;;;1.70;;
44646;SDS011;56315;-33.902;151.160;2023-06-01T00:32:16;2.88;;;1.50;;
44646;SDS011;56315;-33.902;151.160;2023-06-01T00:34:43;4.53;;;1.85;;
44646;SDS011;56315;-33.902;151.160;2023-06-01T00:37:11;7.30;;;1.73;;
44646;SDS011;56315;-33.902;151.160;2023-06-01T00:39:38;15.40;;;2.05;;
44646;SDS011;56315;-33.902;151.160;2023-06-01T00:42:05;4.20;;;1.98;;
44646;SDS011;56315;-33.902;151.160;2023-06-01T00:44:32;2.75;;;1.42;;
44646;SDS011;56315;-33.902;151.160;2023-06-01T00:47:00;4.68;;;1.75;;
44646;SDS011;56315;-33.902;151.160;2023-06-01T00:49:27;4.28;;;1.23;;
44646;SDS011;56315;-33.902;151.160;2023-06-01T00:51:54;4.40;;;2.00;;
44646;SDS011;56315;-33.902;151.160;2023-06-01T00:54:22;2.95;;;1.75;;
44646;SDS011;56315;-33.902;151.160;2023-06-01T00:56:49;3.50;;;1.75;;
44646;SDS011;56315;-33.902;151.160;2023-06-01T00:59:17;3.78;;;1.58;;
44646;SDS011;56315;-33.902;151.160;2023-06-01T01:01:45;4.47;;;1.63;;
44646;SDS011;56315;-33.902;151.160;2023-06-01T01:04:13;4.60;;;1.70;;
44646;SDS011;56315;-33.902;151.160;2023-06-01T01:09:49;4.43;;;1.65;;
44646;SDS011;56315;-33.902;151.160;2023-06-01T01:12:30;3.53;;;1.40;;
44646;SDS011;56315;-33.902;151.160;2023-06-01T01:17:46;4.55;;;2.00;;
44646;SDS011;56315;-33.902;151.160;2023-06-01T01:20:22;6.32;;;1.60;;
44646;SDS011;56315;-33.902;151.160;2023-06-01T01:31:12;4.20;;;1.30;;
44646;SDS011;56315;-33.902;151.160;2023-06-01T01:33:41;4.60;;;1.80;;
44646;SDS011;56315;-33.902;151.160;2023-06-01T01:36:10;8.07;;;2.00;;
44646;SDS011;56315;-33.902;151.160;2023-06-01T01:38:38;8.32;;;2.42;;
44646;SDS011;56315;-33.902;151.160;2023-06-01T01:41:05;4.50;;;1.75;;
44646;SDS011;56315;-33.902;151.160;2023-06-01T01:43:33;4.63;;;1.73;;
44646;SDS011;56315;-33.902;151.160;2023-06-01T01:46:18;3.70;;;1.40;;
44646;SDS011;56315;-33.902;151.160;2023-06-01T01:52:10;3.80;;;1.80;;
44646;SDS011;56315;-33.902;151.160;2023-06-01T01:54:44;2.65;;;1.27;;
44646;SDS011;56315;-33.902;151.160;2023-06-01T01:57:13;3.47;;;1.33;;
44646;SDS011;56315;-33.902;151.160;2023-06-01T01:59:41;5.90;;;1.60;;
44646;SDS011;56315;-33.902;151.160;2023-06-01T02:02:10;4.53;;;1.58;;
44646;SDS011;56315;-33.902;151.160;2023-06-01T02:04:46;68.43;;;61.47;;
44646;SDS011;56315;-33.902;151.160;2023-06-01T02:07:13;6.88;;;2.53;;
44646;SDS011;56315;-33.902;151.160;2023-06-01T02:09:41;5.65;;;1.80;;
44646;SDS011;56315;-33.902;151.160;2023-06-01T02:12:08;5.47;;;1.23;;
44646;SDS011;56315;-33.902;151.160;2023-06-01T02:14:36;4.72;;;1.80;;
44646;SDS011;56315;-33.902;151.160;2023-06-01T02:17:03;4.95;;;1.70;;
44646;SDS011;56315;-33.902;151.160;2023-06-01T02:19:31;4.38;;;2.05;;
44646;SDS011;56315;-33.902;151.160;2023-06-01T02:21:58;5.20;;;2.45;;
44646;SDS011;56315;-33.902;151.160;2023-06-01T02:24:25;4.60;;;1.90;;
44646;SDS011;56315;-33.902;151.160;2023-06-01T02:26:53;7.40;;;1.60;;
44646;SDS011;56315;-33.902;151.160;2023-06-01T02:29:21;7.53;;;1.92;;
44646;SDS011;56315;-33.902;151.160;2023-06-01T02:31:48;5.53;;;1.38;;
44646;SDS011;56315;-33.902;151.160;2023-06-01T02:34:17;7.93;;;1.73;;
44646;SDS011;56315;-33.902;151.160;2023-06-01T02:36:44;3.78;;;1.20;;
44646;SDS011;56315;-33.902;151.160;2023-06-01T02:39:14;3.63;;;1.52;;
44646;SDS011;56315;-33.902;151.160;2023-06-01T02:41:42;2.33;;;1.17;;
44646;SDS011;56315;-33.902;151.160;2023-06-01T02:44:09;4.07;;;1.67;;
44646;SDS011;56315;-33.902;151.160;2023-06-01T02:46:36;2.85;;;1.20;;
44646;SDS011;56315;-33.902;151.160;2023-06-01T02:49:04;5.55;;;1.60;;
44646;SDS011;56315;-33.902;151.160;2023-06-01T02:51:31;6.63;;;3.33;;
44646;SDS011;56315;-33.902;151.160;2023-06-01T02:53:59;6.00;;;2.85;;
44646;SDS011;56315;-33.902;151.160;2023-06-01T02:56:26;8.77;;;3.75;;
44646;SDS011;56315;-33.902;151.160;2023-06-01T02:58:54;6.13;;;2.40;;
44646;SDS011;56315;-33.902;151.160;2023-06-01T03:01:21;4.68;;;1.10;;
44646;SDS011;56315;-33.902;151.160;2023-06-01T03:03:48;7.15;;;1.90;;
44646;SDS011;56315;-33.902;151.160;2023-06-01T03:06:17;4.70;;;1.70;;
44646;SDS011;56315;-33.902;151.160;2023-06-01T03:08:47;10.25;;;8.68;;
44646;SDS011;56315;-33.902;151.160;2023-06-01T03:11:14;5.20;;;4.53;;
44646;SDS011;56315;-33.902;151.160;2023-06-01T03:13:41;4.20;;;1.77;;
44646;SDS011;56315;-33.902;151.160;2023-06-01T03:16:09;4.25;;;1.45;;
44646;SDS011;56315;-33.902;151.160;2023-06-01T03:18:36;3.47;;;1.77;;
44646;SDS011;56315;-33.902;151.160;2023-06-01T03:21:03;6.18;;;1.70;;
44646;SDS011;56315;-33.902;151.160;2023-06-01T03:23:30;4.43;;;1.00;;
44646;SDS011;56315;-33.902;151.160;2023-06-01T03:25:57;6.28;;;1.08;;
44646;SDS011;56315;-33.902;151.160;2023-06-01T03:28:24;3.03;;;0.93;;
44646;SDS011;56315;-33.902;151.160;2023-06-01T03:30:52;4.45;;;1.48;;
44646;SDS011;56315;-33.902;151.160;2023-06-01T03:33:19;3.30;;;0.93;;
44646;SDS011;56315;-33.902;151.160;2023-06-01T03:35:46;3.88;;;1.55;;
44646;SDS011;56315;-33.902;151.160;2023-06-01T03:38:15;3.53;;;1.40;;
44646;SDS011;56315;-33.902;151.160;2023-06-01T03:40:42;2.47;;;1.20;;
44646;SDS011;56315;-33.902;151.160;2023-06-01T03:43:10;2.47;;;1.02;;
44646;SDS011;56315;-33.902;151.160;2023-06-01T03:45:37;2.08;;;1.00;;
44646;SDS011;56315;-33.902;151.160;2023-06-01T03:48:04;5.25;;;1.10;;
44646;SDS011;56315;-33.902;151.160;2023-06-01T03:50:31;4.55;;;1.50;;
44646;SDS011;56315;-33.902;151.160;2023-06-01T03:52:59;1.90;;;1.10;;
44646;SDS011;56315;-33.902;151.160;2023-06-01T03:55:26;3.50;;;0.82;;
44646;SDS011;56315;-33.902;151.160;2023-06-01T03:57:54;3.40;;;1.00;;
44646;SDS011;56315;-33.902;151.160;2023-06-01T04:00:22;2.28;;;1.00;;
44646;SDS011;56315;-33.902;151.160;2023-06-01T04:05:18;1.75;;;1.17;;
44646;SDS011;56315;-33.902;151.160;2023-06-01T04:07:47;2.50;;;1.05;;
44646;SDS011;56315;-33.902;151.160;2023-06-01T04:10:15;3.95;;;1.05;;
44646;SDS011;56315;-33.902;151.160;2023-06-01T04:12:43;2.17;;;1.10;;
44646;SDS011;56315;-33.902;151.160;2023-06-01T04:15:11;2.80;;;1.30;;
44646;SDS011;56315;-33.902;151.160;2023-06-01T04:17:40;2.33;;;1.17;;
44646;SDS011;56315;-33.902;151.160;2023-06-01T04:20:09;3.25;;;1.20;;
44646;SDS011;56315;-33.902;151.160;2023-06-01T04:22:38;1.63;;;0.80;;
44646;SDS011;56315;-33.902;151.160;2023-06-01T04:25:08;2.50;;;1.00;;
44646;SDS011;56315;-33.902;151.160;2023-06-01T04:27:43;2.42;;;1.08;;
44646;SDS011;56315;-33.902;151.160;2023-06-01T04:30:13;2.15;;;1.13;;
44646;SDS011;56315;-33.902;151.160;2023-06-01T04:32:41;4.82;;;1.45;;
44646;SDS011;56315;-33.902;151.160;2023-06-01T04:35:09;4.55;;;1.35;;
44646;SDS011;56315;-33.902;151.160;2023-06-01T04:37:38;5.40;;;1.20;;
44646;SDS011;56315;-33.902;151.160;2023-06-01T04:40:07;3.53;;;1.30;;
44646;SDS011;56315;-33.902;151.160;2023-06-01T04:42:39;2.10;;;1.00;;
44646;SDS011;56315;-33.902;151.160;2023-06-01T04:45:07;2.75;;;1.23;;
44646;SDS011;56315;-33.902;151.160;2023-06-01T04:47:35;2.55;;;1.10;;
44646;SDS011;56315;-33.902;151.160;2023-06-01T04:50:09;3.72;;;1.52;;
44646;SDS011;56315;-33.902;151.160;2023-06-01T04:52:40;8.88;;;1.20;;
44646;SDS011;56315;-33.902;151.160;2023-06-01T04:55:08;6.03;;;1.60;;
44646;SDS011;56315;-33.902;151.160;2023-06-01T04:57:38;4.88;;;1.20;;
44646;SDS011;56315;-33.902;151.160;2023-06-01T05:00:09;4.22;;;1.63;;
44646;SDS011;56315;-33.902;151.160;2023-06-01T05:02:41;3.70;;;1.83;;
44646;SDS011;56315;-33.902;151.160;2023-06-01T05:05:10;6.53;;;1.67;;
44646;SDS011;56315;-33.902;151.160;2023-06-01T05:07:38;3.25;;;1.83;;
44646;SDS011;56315;-33.902;151.160;2023-06-01T05:10:07;3.60;;;1.70;;
44646;SDS011;56315;-33.902;151.160;2023-06-01T05:12:37;20.33;;;18.60;;
44646;SDS011;56315;-33.902;151.160;2023-06-01T05:15:05;5.57;;;2.22;;
44646;SDS011;56315;-33.902;151.160;2023-06-01T05:17:34;8.45;;;1.90;;
44646;SDS011;56315;-33.902;151.160;2023-06-01T05:20:01;5.97;;;1.90;;
44646;SDS011;56315;-33.902;151.160;2023-06-01T05:22:29;4.43;;;1.80;;
44646;SDS011;56315;-33.902;151.160;2023-06-01T05:24:56;4.10;;;2.20;;
44646;SDS011;56315;-33.902;151.160;2023-06-01T05:27:23;7.85;;;1.98;;
44646;SDS011;56315;-33.902;151.160;2023-06-01T05:29:50;7.43;;;5.75;;
44646;SDS011;56315;-33.902;151.160;2023-06-01T05:32:18;11.40;;;10.23;;
44646;SDS011;56315;-33.902;151.160;2023-06-01T05:34:45;9.27;;;5.88;;
44646;SDS011;56315;-33.902;151.160;2023-06-01T05:37:12;9.52;;;6.80;;
44646;SDS011;56315;-33.902;151.160;2023-06-01T05:39:40;9.60;;;2.58;;
44646;SDS011;56315;-33.902;151.160;2023-06-01T05:42:07;6.45;;;2.10;;
44646;SDS011;56315;-33.902;151.160;2023-06-01T05:44:35;8.02;;;2.05;;
44646;SDS011;56315;-33.902;151.160;2023-06-01T05:47:02;9.13;;;4.30;;
44646;SDS011;56315;-33.902;151.160;2023-06-01T05:49:29;5.88;;;3.40;;
44646;SDS011;56315;-33.902;151.160;2023-06-01T05:51:57;11.90;;;8.32;;
44646;SDS011;56315;-33.902;151.160;2023-06-01T05:54:24;12.68;;;10.45;;
44646;SDS011;56315;-33.902;151.160;2023-06-01T05:56:52;15.30;;;11.70;;
44646;SDS011;56315;-33.902;151.160;2023-06-01T05:59:19;11.52;;;5.78;;
44646;SDS011;56315;-33.902;151.160;2023-06-01T06:01:46;7.30;;;3.33;;
44646;SDS011;56315;-33.902;151.160;2023-06-01T06:04:16;6.07;;;2.08;;
44646;SDS011;56315;-33.902;151.160;2023-06-01T06:06:44;3.85;;;2.15;;
44646;SDS011;56315;-33.902;151.160;2023-06-01T06:09:11;6.47;;;2.05;;
44646;SDS011;56315;-33.902;151.160;2023-06-01T06:11:39;4.00;;;1.90;;
44646;SDS011;56315;-33.902;151.160;2023-06-01T06:14:07;6.05;;;2.17;;
44646;SDS011;56315;-33.902;151.160;2023-06-01T06:16:36;3.90;;;2.20;;
44646;SDS011;56315;-33.902;151.160;2023-06-01T06:19:05;3.78;;;2.00;;
44646;SDS011;56315;-33.902;151.160;2023-06-01T06:21:32;3.55;;;2.22;;
44646;SDS011;56315;-33.902;151.160;2023-06-01T06:24:01;4.65;;;1.90;;
44646;SDS011;56315;-33.902;151.160;2023-06-01T06:26:29;5.68;;;2.13;;
44646;SDS011;56315;-33.902;151.160;2023-06-01T06:28:56;4.80;;;1.95;;
44646;SDS011;56315;-33.902;151.160;2023-06-01T06:31:23;5.15;;;1.65;;
44646;SDS011;56315;-33.902;151.160;2023-06-01T06:33:51;7.78;;;1.70;;
44646;SDS011;56315;-33.902;151.160;2023-06-01T06:36:18;4.75;;;2.20;;
44646;SDS011;56315;-33.902;151.160;2023-06-01T06:38:46;8.23;;;2.22;;
44646;SDS011;56315;-33.902;151.160;2023-06-01T06:41:13;7.57;;;2.85;;
44646;SDS011;56315;-33.902;151.160;2023-06-01T06:43:41;4.85;;;2.58;;
44646;SDS011;56315;-33.902;151.160;2023-06-01T06:46:08;5.18;;;1.90;;
44646;SDS011;56315;-33.902;151.160;2023-06-01T06:48:35;4.10;;;2.20;;
44646;SDS011;56315;-33.902;151.160;2023-06-01T06:51:02;6.47;;;2.83;;
44646;SDS011;56315;-33.902;151.160;2023-06-01T06:53:30;9.55;;;3.10;;
44646;SDS011;56315;-33.902;151.160;2023-06-01T06:55:58;9.88;;;2.35;;
44646;SDS011;56315;-33.902;151.160;2023-06-01T06:58:26;6.53;;;2.72;;
44646;SDS011;56315;-33.902;151.160;2023-06-01T07:00:53;6.05;;;2.40;;
44646;SDS011;56315;-33.902;151.160;2023-06-01T07:03:20;7.28;;;2.65;;
44646;SDS011;56315;-33.902;151.160;2023-06-01T07:05:48;6.68;;;3.70;;
44646;SDS011;56315;-33.902;151.160;2023-06-01T07:08:15;5.72;;;3.95;;
44646;SDS011;56315;-33.902;151.160;2023-06-01T07:10:42;4.53;;;3.83;;
44646;SDS011;56315;-33.902;151.160;2023-06-01T07:13:10;6.80;;;3.40;;
44646;SDS011;56315;-33.902;151.160;2023-06-01T07:15:37;7.82;;;4.38;;
44646;SDS011;56315;-33.902;151.160;2023-06-01T07:18:06;8.80;;;5.18;;
44646;SDS011;56315;-33.902;151.160;2023-06-01T07:20:33;10.27;;;5.65;;
44646;SDS011;56315;-33.902;151.160;2023-06-01T07:23:00;6.53;;;2.47;;
44646;SDS011;56315;-33.902;151.160;2023-06-01T07:25:28;6.38;;;3.60;;
44646;SDS011;56315;-33.902;151.160;2023-06-01T07:27:56;6.20;;;4.07;;
44646;SDS011;56315;-33.902;151.160;2023-06-01T07:30:26;6.70;;;4.03;;
44646;SDS011;56315;-33.902;151.160;2023-06-01T07:32:53;6.75;;;3.60;;
44646;SDS011;56315;-33.902;151.160;2023-06-01T07:35:21;8.60;;;3.75;;
44646;SDS011;56315;-33.902;151.160;2023-06-01T07:37:53;5.15;;;3.42;;
44646;SDS011;56315;-33.902;151.160;2023-06-01T07:40:21;11.05;;;3.55;;
44646;SDS011;56315;-33.902;151.160;2023-06-01T07:42:48;8.13;;;3.88;;
44646;SDS011;56315;-33.902;151.160;2023-06-01T07:45:16;8.80;;;3.75;;
44646;SDS011;56315;-33.902;151.160;2023-06-01T07:47:44;8.55;;;3.80;;
44646;SDS011;56315;-33.902;151.160;2023-06-01T07:50:11;8.02;;;4.28;;
44646;SDS011;56315;-33.902;151.160;2023-06-01T07:52:39;9.57;;;4.57;;
44646;SDS011;56315;-33.902;151.160;2023-06-01T07:55:06;7.22;;;3.80;;
44646;SDS011;56315;-33.902;151.160;2023-06-01T07:57:37;5.85;;;3.92;;
44646;SDS011;56315;-33.902;151.160;2023-06-01T08:00:05;11.98;;;4.30;;
44646;SDS011;56315;-33.902;151.160;2023-06-01T08:02:37;9.65;;;4.57;;
44646;SDS011;56315;-33.902;151.160;2023-06-01T08:05:06;8.88;;;4.43;;
44646;SDS011;56315;-33.902;151.160;2023-06-01T08:07:35;10.65;;;4.72;;
44646;SDS011;56315;-33.902;151.160;2023-06-01T08:10:06;17.38;;;9.68;;
44646;SDS011;56315;-33.902;151.160;2023-06-01T08:12:34;22.27;;;10.98;;
44646;SDS011;56315;-33.902;151.160;2023-06-01T08:15:02;13.02;;;9.13;;
44646;SDS011;56315;-33.902;151.160;2023-06-01T08:17:31;21.02;;;11.68;;
44646;SDS011;56315;-33.902;151.160;2023-06-01T08:19:58;15.70;;;8.15;;
44646;SDS011;56315;-33.902;151.160;2023-06-01T08:22:25;15.52;;;8.48;;
44646;SDS011;56315;-33.902;151.160;2023-06-01T08:24:54;10.70;;;6.40;;
44646;SDS011;56315;-33.902;151.160;2023-06-01T08:27:25;14.40;;;6.63;;
44646;SDS011;56315;-33.902;151.160;2023-06-01T08:29:54;13.63;;;7.22;;
44646;SDS011;56315;-33.902;151.160;2023-06-01T08:32:21;10.52;;;6.70;;
44646;SDS011;56315;-33.902;151.160;2023-06-01T08:34:48;8.52;;;5.93;;
44646;SDS011;56315;-33.902;151.160;2023-06-01T08:37:16;12.68;;;7.07;;
44646;SDS011;56315;-33.902;151.160;2023-06-01T08:39:43;15.57;;;6.85;;
44646;SDS011;56315;-33.902;151.160;2023-06-01T08:42:18;9.93;;;7.60;;
44646;SDS011;56315;-33.902;151.160;2023-06-01T08:44:53;8.93;;;6.30;;
44646;SDS011;56315;-33.902;151.160;2023-06-01T08:47:22;9.73;;;6.18;;
44646;SDS011;56315;-33.902;151.160;2023-06-01T08:49:51;9.75;;;6.07;;
44646;SDS011;56315;-33.902;151.160;2023-06-01T08:52:20;9.73;;;6.18;;
44646;SDS011;56315;-33.902;151.160;2023-06-01T08:54:48;13.38;;;7.60;;
44646;SDS011;56315;-33.902;151.160;2023-06-01T08:57:15;13.10;;;7.13;;
44646;SDS011;56315;-33.902;151.160;2023-06-01T08:59:43;11.18;;;7.45;;
44646;SDS011;56315;-33.902;151.160;2023-06-01T09:02:13;11.93;;;7.20;;
44646;SDS011;56315;-33.902;151.160;2023-06-01T09:04:41;13.93;;;7.97;;
44646;SDS011;56315;-33.902;151.160;2023-06-01T09:07:13;16.13;;;7.38;;
44646;SDS011;56315;-33.902;151.160;2023-06-01T09:09:40;13.27;;;8.45;;
44646;SDS011;56315;-33.902;151.160;2023-06-01T09:12:28;12.80;;;8.40;;
44646;SDS011;56315;-33.902;151.160;2023-06-01T09:17:36;12.32;;;7.97;;
44646;SDS011;56315;-33.902;151.160;2023-06-01T09:20:04;11.57;;;7.68;;
44646;SDS011;56315;-33.902;151.160;2023-06-01T09:22:54;15.20;;;8.48;;
44646;SDS011;56315;-33.902;151.160;2023-06-01T09:25:24;13.88;;;8.38;;
44646;SDS011;56315;-33.902;151.160;2023-06-01T09:27:55;16.17;;;8.68;;
44646;SDS011;56315;-33.902;151.160;2023-06-01T09:30:24;14.10;;;8.38;;
44646;SDS011;56315;-33.902;151.160;2023-06-01T09:33:09;11.30;;;8.32;;
44646;SDS011;56315;-33.902;151.160;2023-06-01T09:35:44;13.38;;;9.65;;
44646;SDS011;56315;-33.902;151.160;2023-06-01T09:38:20;13.18;;;10.60;;
44646;SDS011;56315;-33.902;151.160;2023-06-01T09:40:56;11.65;;;8.80;;
44646;SDS011;56315;-33.902;151.160;2023-06-01T09:43:24;12.65;;;8.57;;
44646;SDS011;56315;-33.902;151.160;2023-06-01T09:46:04;12.23;;;8.27;;
44646;SDS011;56315;-33.902;151.160;2023-06-01T09:48:33;11.80;;;8.27;;
44646;SDS011;56315;-33.902;151.160;2023-06-01T09:51:01;14.90;;;8.43;;
44646;SDS011;56315;-33.902;151.160;2023-06-01T09:53:28;12.70;;;7.35;;
44646;SDS011;56315;-33.902;151.160;2023-06-01T09:56:06;16.08;;;7.90;;
44646;SDS011;56315;-33.902;151.160;2023-06-01T09:58:34;17.55;;;6.28;;
44646;SDS011;56315;-33.902;151.160;2023-06-01T10:01:04;18.33;;;6.15;;
44646;SDS011;56315;-33.902;151.160;2023-06-01T10:03:36;17.05;;;7.20;;
44646;SDS011;56315;-33.902;151.160;2023-06-01T10:08:37;23.25;;;6.53;;
44646;SDS011;56315;-33.902;151.160;2023-06-01T10:11:06;20.17;;;6.32;;
44646;SDS011;56315;-33.902;151.160;2023-06-01T10:13:35;24.45;;;6.72;;
44646;SDS011;56315;-33.902;151.160;2023-06-01T10:16:02;17.48;;;5.82;;
44646;SDS011;56315;-33.902;151.160;2023-06-01T10:18:31;16.52;;;5.82;;
44646;SDS011;56315;-33.902;151.160;2023-06-01T10:20:59;28.58;;;7.68;;
44646;SDS011;56315;-33.902;151.160;2023-06-01T10:23:28;25.05;;;6.03;;
44646;SDS011;56315;-33.902;151.160;2023-06-01T10:25:55;22.00;;;6.28;;
44646;SDS011;56315;-33.902;151.160;2023-06-01T10:28:24;24.45;;;6.45;;
44646;SDS011;56315;-33.902;151.160;2023-06-01T10:31:55;30.25;;;6.13;;
44646;SDS011;56315;-33.902;151.160;2023-06-01T10:34:07;26.27;;;5.93;;
44646;SDS011;56315;-33.902;151.160;2023-06-01T10:39:23;23.25;;;6.00;;
44646;SDS011;56315;-33.902;151.160;2023-06-01T10:41:53;22.02;;;6.03;;
44646;SDS011;56315;-33.902;151.160;2023-06-01T10:47:06;32.47;;;6.57;;
44646;SDS011;56315;-33.902;151.160;2023-06-01T10:52:33;23.88;;;6.63;;
44646;SDS011;56315;-33.902;151.160;2023-06-01T10:57:41;28.55;;;8.98;;
44646;SDS011;56315;-33.902;151.160;2023-06-01T11:08:07;27.10;;;6.18;;
44646;SDS011;56315;-33.902;151.160;2023-06-01T11:10:59;35.67;;;6.78;;
44646;SDS011;56315;-33.902;151.160;2023-06-01T11:13:32;27.48;;;6.93;;
44646;SDS011;56315;-33.902;151.160;2023-06-01T11:21:33;28.65;;;8.43;;
44646;SDS011;56315;-33.902;151.160;2023-06-01T11:24:08;38.58;;;9.52;;
44646;SDS011;56315;-33.902;151.160;2023-06-01T11:26:41;27.13;;;7.60;;
44646;SDS011;56315;-33.902;151.160;2023-06-01T11:29:14;33.92;;;9.68;;
44646;SDS011;56315;-33.902;151.160;2023-06-01T11:31:47;29.35;;;7.88;;
44646;SDS011;56315;-33.902;151.160;2023-06-01T11:34:16;35.88;;;10.32;;
44646;SDS011;56315;-33.902;151.160;2023-06-01T11:36:47;30.85;;;8.73;;
44646;SDS011;56315;-33.902;151.160;2023-06-01T11:39:17;41.20;;;9.18;;
44646;SDS011;56315;-33.902;151.160;2023-06-01T11:41:51;49.42;;;9.57;;
44646;SDS011;56315;-33.902;151.160;2023-06-01T11:44:36;49.17;;;10.35;;
44646;SDS011;56315;-33.902;151.160;2023-06-01T11:47:06;28.85;;;8.13;;
44646;SDS011;56315;-33.902;151.160;2023-06-01T11:52:15;38.72;;;7.70;;
44646;SDS011;56315;-33.902;151.160;2023-06-01T11:54:43;40.53;;;8.57;;
44646;SDS011;56315;-33.902;151.160;2023-06-01T11:57:11;51.42;;;8.75;;
44646;SDS011;56315;-33.902;151.160;2023-06-01T11:59:46;51.67;;;8.27;;
44646;SDS011;56315;-33.902;151.160;2023-06-01T12:02:22;43.50;;;7.45;;
44646;SDS011;56315;-33.902;151.160;2023-06-01T12:05:01;44.92;;;7.65;;
44646;SDS011;56315;-33.902;151.160;2023-06-01T12:07:50;33.00;;;7.25;;
44646;SDS011;56315;-33.902;151.160;2023-06-01T12:10:19;61.72;;;8.07;;
44646;SDS011;56315;-33.902;151.160;2023-06-01T12:12:47;32.83;;;6.97;;
44646;SDS011;56315;-33.902;151.160;2023-06-01T12:15:16;44.63;;;8.20;;
44646;SDS011;56315;-33.902;151.160;2023-06-01T12:20:28;56.75;;;9.52;;
44646;SDS011;56315;-33.902;151.160;2023-06-01T12:23:01;55.25;;;7.55;;
44646;SDS011;56315;-33.902;151.160;2023-06-01T12:25:53;45.15;;;7.35;;
44646;SDS011;56315;-33.902;151.160;2023-06-01T12:28:24;42.03;;;7.28;;
44646;SDS011;56315;-33.902;151.160;2023-06-01T12:31:27;30.98;;;6.53;;
44646;SDS011;56315;-33.902;151.160;2023-06-01T12:33:49;48.67;;;8.05;;
44646;SDS011;56315;-33.902;151.160;2023-06-01T12:36:34;37.70;;;7.63;;
44646;SDS011;56315;-33.902;151.160;2023-06-01T12:39:03;40.35;;;8.15;;
44646;SDS011;56315;-33.902;151.160;2023-06-01T12:41:30;43.47;;;7.90;;
44646;SDS011;56315;-33.902;151.160;2023-06-01T12:43:59;42.22;;;7.82;;
44646;SDS011;56315;-33.902;151.160;2023-06-01T12:46:27;48.33;;;7.53;;
44646;SDS011;56315;-33.902;151.160;2023-06-01T12:51:37;36.38;;;7.97;;
44646;SDS011;56315;-33.902;151.160;2023-06-01T12:54:05;44.65;;;10.50;;
44646;SDS011;56315;-33.902;151.160;2023-06-01T12:56:32;30.02;;;7.13;;
44646;SDS011;56315;-33.902;151.160;2023-06-01T12:59:00;53.08;;;11.68;;
44646;SDS011;56315;-33.902;151.160;2023-06-01T13:01:28;41.28;;;10.63;;
44646;SDS011;56315;-33.902;151.160;2023-06-01T13:03:56;39.65;;;9.63;;
44646;SDS011;56315;-33.902;151.160;2023-06-01T13:06:23;42.95;;;10.65;;
44646;SDS011;56315;-33.902;151.160;2023-06-01T13:08:51;36.72;;;9.35;;
44646;SDS011;56315;-33.902;151.160;2023-06-01T13:11:19;36.25;;;9.98;;
44646;SDS011;56315;-33.902;151.160;2023-06-01T13:13:50;42.10;;;9.48;;
44646;SDS011;56315;-33.902;151.160;2023-06-01T13:16:17;42.70;;;7.90;;
44646;SDS011;56315;-33.902;151.160;2023-06-01T13:18:46;32.65;;;6.72;;
44646;SDS011;56315;-33.902;151.160;2023-06-01T13:21:19;37.83;;;7.53;;
44646;SDS011;56315;-33.902;151.160;2023-06-01T13:23:46;38.47;;;8.15;;
44646;SDS011;56315;-33.902;151.160;2023-06-01T13:26:14;40.58;;;8.82;;
44646;SDS011;56315;-33.902;151.160;2023-06-01T13:28:41;42.90;;;9.57;;
44646;SDS011;56315;-33.902;151.160;2023-06-01T13:31:09;32.72;;;7.18;;
44646;SDS011;56315;-33.902;151.160;2023-06-01T13:33:36;32.55;;;7.00;;
44646;SDS011;56315;-33.902;151.160;2023-06-01T13:36:05;36.95;;;7.72;;
44646;SDS011;56315;-33.902;151.160;2023-06-01T13:38:33;32.50;;;7.20;;
44646;SDS011;56315;-33.902;151.160;2023-06-01T13:41:01;37.95;;;8.27;;
44646;SDS011;56315;-33.902;151.160;2023-06-01T13:43:29;38.10;;;7.32;;
44646;SDS011;56315;-33.902;151.160;2023-06-01T13:45:56;38.22;;;7.78;;
44646;SDS011;56315;-33.902;151.160;2023-06-01T13:48:23;34.15;;;6.90;;
44646;SDS011;56315;-33.902;151.160;2023-06-01T13:50:51;28.60;;;5.97;;
44646;SDS011;56315;-33.902;151.160;2023-06-01T13:53:18;30.73;;;7.05;;
44646;SDS011;56315;-33.902;151.160;2023-06-01T13:55:46;30.60;;;7.57;;
44646;SDS011;56315;-33.902;151.160;2023-06-01T13:58:13;37.15;;;6.80;;
44646;SDS011;56315;-33.902;151.160;2023-06-01T14:00:41;29.77;;;6.88;;
44646;SDS011;56315;-33.902;151.160;2023-06-01T14:03:08;26.92;;;6.13;;
44646;SDS011;56315;-33.902;151.160;2023-06-01T14:05:36;29.33;;;6.90;;
44646;SDS011;56315;-33.902;151.160;2023-06-01T14:08:03;33.70;;;6.50;;
44646;SDS011;56315;-33.902;151.160;2023-06-01T14:10:31;29.15;;;6.32;;
44646;SDS011;56315;-33.902;151.160;2023-06-01T14:13:00;24.77;;;6.30;;
44646;SDS011;56315;-33.902;151.160;2023-06-01T14:15:28;33.35;;;6.97;;
44646;SDS011;56315;-33.902;151.160;2023-06-01T14:17:56;34.80;;;5.60;;
44646;SDS011;56315;-33.902;151.160;2023-06-01T14:20:23;33.00;;;8.02;;
44646;SDS011;56315;-33.902;151.160;2023-06-01T14:22:50;27.75;;;6.00;;
44646;SDS011;56315;-33.902;151.160;2023-06-01T14:25:18;24.05;;;6.10;;
44646;SDS011;56315;-33.902;151.160;2023-06-01T14:27:45;32.88;;;5.70;;
44646;SDS011;56315;-33.902;151.160;2023-06-01T14:30:13;28.50;;;6.18;;
44646;SDS011;56315;-33.902;151.160;2023-06-01T14:32:40;27.55;;;5.47;;
44646;SDS011;56315;-33.902;151.160;2023-06-01T14:35:07;31.38;;;6.28;;
44646;SDS011;56315;-33.902;151.160;2023-06-01T14:37:35;28.70;;;6.18;;
44646;SDS011;56315;-33.902;151.160;2023-06-01T14:40:02;28.40;;;6.75;;
44646;SDS011;56315;-33.902;151.160;2023-06-01T14:42:30;40.03;;;6.18;;
44646;SDS011;56315;-33.902;151.160;2023-06-01T14:44:57;27.05;;;5.82;;
44646;SDS011;56315;-33.902;151.160;2023-06-01T14:47:25;33.20;;;6.55;;
44646;SDS011;56315;-33.902;151.160;2023-06-01T14:49:52;32.40;;;6.07;;
44646;SDS011;56315;-33.902;151.160;2023-06-01T14:52:19;34.08;;;6.72;;
44646;SDS011;56315;-33.902;151.160;2023-06-01T14:54:46;27.02;;;7.03;;
44646;SDS011;56315;-33.902;151.160;2023-06-01T14:57:14;24.30;;;6.90;;
44646;SDS011;56315;-33.902;151.160;2023-06-01T14:59:41;31.00;;;7.90;;
44646;SDS011;56315;-33.902;151.160;2023-06-01T15:02:09;33.03;;;6.68;;
44646;SDS011;56315;-33.902;151.160;2023-06-01T15:04:36;30.30;;;6.45;;
44646;SDS011;56315;-33.902;151.160;2023-06-01T15:07:03;30.58;;;6.93;;
44646;SDS011;56315;-33.902;151.160;2023-06-01T15:09:31;34.35;;;7.40;;
44646;SDS011;56315;-33.902;151.160;2023-06-01T15:11:58;32.53;;;8.38;;